createdAt,value
2017-11-05T00:01:07.071Z,18.20
2017-11-05T00:03:35.332Z,21.28
2017-11-05T00:06:03.640Z,24.04
2017-11-05T00:08:31.904Z,20.10
2017-11-05T00:11:00.183Z,20.08
2017-11-05T00:13:28.499Z,28.14
2017-11-05T00:15:56.763Z,23.44
2017-11-05T00:18:25.026Z,23.00
2017-11-05T00:20:53.336Z,22.76
2017-11-05T00:23:21.623Z,27.60
2017-11-05T00:25:49.922Z,30.40
2017-11-05T00:28:18.196Z,23.84
2017-11-05T00:30:47.612Z,21.66
2017-11-05T00:33:16.767Z,23.22
2017-11-05T00:35:45.825Z,19.04
2017-11-05T00:38:14.122Z,23.52
2017-11-05T00:40:42.376Z,21.88
2017-11-05T00:43:10.641Z,22.04
2017-11-05T00:45:38.936Z,22.40
2017-11-05T00:48:07.196Z,25.08
2017-11-05T00:50:36.774Z,20.60
2017-11-05T00:53:06.071Z,20.42
2017-11-05T00:55:35.037Z,23.80
2017-11-05T00:58:03.352Z,24.96
2017-11-05T01:00:31.615Z,28.66
2017-11-05T01:02:59.885Z,24.56
2017-11-05T01:05:27.430Z,23.82
2017-11-05T01:07:55.715Z,24.56
2017-11-05T01:10:24.019Z,23.40
2017-11-05T01:12:52.299Z,24.26
2017-11-05T01:15:20.608Z,26.56
2017-11-05T01:17:48.897Z,25.46
2017-11-05T01:20:17.210Z,21.46
2017-11-05T01:22:46.628Z,20.56
2017-11-05T01:25:14.936Z,26.08
2017-11-05T01:27:44.031Z,27.54
2017-11-05T01:30:11.543Z,24.60
2017-11-05T01:32:40.136Z,19.50
2017-11-05T01:35:08.411Z,21.28
2017-11-05T01:37:36.711Z,22.76
2017-11-05T01:40:04.845Z,23.88
2017-11-05T01:42:33.143Z,21.90
2017-11-05T01:45:01.444Z,23.34
2017-11-05T01:47:29.701Z,25.88
2017-11-05T01:49:57.963Z,22.20
2017-11-05T01:52:26.260Z,25.18
2017-11-05T01:54:54.523Z,22.40
2017-11-05T01:57:22.791Z,25.32
2017-11-05T01:59:51.088Z,21.42
2017-11-05T02:02:19.717Z,30.00
2017-11-05T02:04:47.975Z,27.90
2017-11-05T02:07:19.830Z,20.96
2017-11-05T02:09:48.091Z,25.40
2017-11-05T02:12:16.975Z,23.32
2017-11-05T02:14:45.669Z,22.66
2017-11-05T02:17:13.936Z,23.36
2017-11-05T02:19:42.239Z,27.14
2017-11-05T02:22:10.499Z,22.10
2017-11-05T02:24:38.819Z,23.40
2017-11-05T02:27:07.080Z,22.38
2017-11-05T02:29:35.344Z,22.62
2017-11-05T02:32:03.635Z,24.04
2017-11-05T02:34:31.902Z,36.80
2017-11-05T02:37:00.191Z,22.62
2017-11-05T02:39:28.454Z,18.76
2017-11-05T02:41:56.756Z,26.10
2017-11-05T02:44:25.019Z,19.74
2017-11-05T02:46:53.311Z,20.70
2017-11-05T02:49:21.585Z,20.18
2017-11-05T02:51:49.871Z,18.58
2017-11-05T02:54:18.161Z,23.02
2017-11-05T02:56:46.952Z,20.58
2017-11-05T02:59:15.684Z,20.74
2017-11-05T03:01:43.991Z,26.74
2017-11-05T03:04:12.256Z,29.46
2017-11-05T03:06:40.511Z,22.10
2017-11-05T03:09:08.807Z,26.54
2017-11-05T03:11:37.067Z,19.68
2017-11-05T03:14:05.357Z,24.42
2017-11-05T03:16:33.612Z,23.70
2017-11-05T03:19:01.913Z,18.74
2017-11-05T03:21:31.575Z,21.38
2017-11-05T03:23:59.827Z,28.24
2017-11-05T03:26:28.128Z,21.08
2017-11-05T03:28:56.392Z,22.96
2017-11-05T03:31:24.654Z,23.34
2017-11-05T03:33:52.959Z,24.08
2017-11-05T03:36:21.228Z,18.26
2017-11-05T03:38:49.524Z,36.50
2017-11-05T03:41:17.790Z,22.66
2017-11-05T03:43:46.938Z,19.38
2017-11-05T03:46:15.797Z,25.18
2017-11-05T03:48:44.091Z,21.82
2017-11-05T03:51:12.347Z,20.44
2017-11-05T03:53:40.604Z,21.76
2017-11-05T03:56:08.887Z,20.22
2017-11-05T03:58:37.148Z,21.50
2017-11-05T04:01:05.775Z,22.30
2017-11-05T04:03:33.296Z,22.16
2017-11-05T04:06:01.584Z,24.78
2017-11-05T04:08:29.853Z,20.84
2017-11-05T04:10:58.164Z,24.44
2017-11-05T04:13:25.663Z,23.86
2017-11-05T04:15:53.926Z,22.78
2017-11-05T04:18:22.231Z,23.70
2017-11-05T04:20:50.496Z,25.90
2017-11-05T04:23:18.787Z,24.44
2017-11-05T04:25:48.263Z,24.74
2017-11-05T04:28:17.632Z,29.82
2017-11-05T04:30:46.456Z,30.50
2017-11-05T04:33:14.728Z,22.90
2017-11-05T04:35:43.015Z,28.02
2017-11-05T04:38:11.280Z,25.94
2017-11-05T04:40:39.564Z,24.20
2017-11-05T04:43:07.872Z,18.72
2017-11-05T04:45:37.354Z,23.78
2017-11-05T04:48:06.199Z,19.00
2017-11-05T04:50:34.520Z,17.18
2017-11-05T04:53:02.016Z,17.10
2017-11-05T04:55:30.303Z,21.30
2017-11-05T04:57:58.578Z,19.24
2017-11-05T05:00:26.844Z,16.60
2017-11-05T05:02:55.127Z,21.44
2017-11-05T05:05:23.379Z,18.52
2017-11-05T05:07:51.669Z,22.50
2017-11-05T05:10:19.927Z,20.52
2017-11-05T05:12:48.219Z,17.30
2017-11-05T05:15:16.967Z,18.58
2017-11-05T05:17:45.276Z,18.66
2017-11-05T05:20:13.576Z,14.98
2017-11-05T05:22:41.839Z,20.02
2017-11-05T05:25:10.140Z,17.72
2017-11-05T05:27:38.407Z,18.96
2017-11-05T05:30:06.708Z,20.92
2017-11-05T05:32:36.205Z,16.86
2017-11-05T05:35:04.492Z,16.06
2017-11-05T05:37:32.756Z,14.72
2017-11-05T05:40:01.064Z,8.96
2017-11-05T05:42:29.319Z,10.12
2017-11-05T05:44:57.567Z,11.10
2017-11-05T05:47:25.844Z,9.34
2017-11-05T05:49:54.092Z,8.38
2017-11-05T05:52:22.380Z,7.28
2017-11-05T05:54:50.627Z,10.62
2017-11-05T05:57:18.903Z,8.88
2017-11-05T05:59:47.291Z,10.20
2017-11-05T06:02:16.727Z,6.30
2017-11-05T06:04:45.008Z,6.78
2017-11-05T06:07:13.265Z,6.80
2017-11-05T06:09:41.553Z,7.24
2017-11-05T06:12:09.800Z,5.98
2017-11-05T06:14:38.091Z,6.66
2017-11-05T06:17:06.943Z,9.78
2017-11-05T06:19:36.160Z,7.88
2017-11-05T06:22:04.535Z,9.24
2017-11-05T06:24:32.795Z,8.86
2017-11-05T06:27:01.075Z,7.50
2017-11-05T06:29:29.319Z,7.80
2017-11-05T06:31:57.562Z,7.48
2017-11-05T06:34:25.844Z,9.56
2017-11-05T06:36:54.103Z,8.82
2017-11-05T06:39:22.387Z,10.90
2017-11-05T06:41:50.643Z,8.96
2017-11-05T06:44:18.919Z,9.30
2017-11-05T06:46:48.003Z,9.12
2017-11-05T06:49:16.263Z,5.78
2017-11-05T06:51:44.542Z,6.88
2017-11-05T06:54:12.035Z,8.60
2017-11-05T06:56:40.323Z,8.10
2017-11-05T06:59:07.812Z,6.28
2017-11-05T07:01:37.290Z,6.00
2017-11-05T07:04:06.247Z,5.82
2017-11-05T07:06:36.000Z,6.40
2017-11-05T07:09:04.326Z,4.40
2017-11-05T07:11:32.575Z,7.34
2017-11-05T07:14:00.833Z,4.06
2017-11-05T07:16:29.114Z,4.46
2017-11-05T07:18:57.405Z,11.24
2017-11-05T07:21:25.671Z,4.56
2017-11-05T07:23:53.964Z,6.40
2017-11-05T07:26:22.208Z,8.78
2017-11-05T07:28:50.459Z,7.70
2017-11-05T07:31:18.746Z,8.18
2017-11-05T07:33:48.261Z,7.24
2017-11-05T07:36:17.260Z,10.74
2017-11-05T07:38:46.168Z,8.20
2017-11-05T07:41:14.461Z,6.78
2017-11-05T07:43:42.748Z,6.48
2017-11-05T07:46:11.001Z,7.76
2017-11-05T07:48:39.279Z,5.80
2017-11-05T07:51:07.586Z,6.34
2017-11-05T07:53:35.985Z,4.94
2017-11-05T07:56:04.982Z,4.72
2017-11-05T07:58:33.264Z,7.18
2017-11-05T08:01:01.528Z,7.82
2017-11-05T08:03:29.821Z,5.40
2017-11-05T08:06:01.939Z,4.86
2017-11-05T08:08:29.485Z,5.34
2017-11-05T08:10:57.773Z,5.40
2017-11-05T08:13:26.035Z,6.16
2017-11-05T08:15:54.303Z,6.12
2017-11-05T08:18:22.587Z,7.22
2017-11-05T08:20:50.879Z,6.54
2017-11-05T08:23:19.129Z,6.18
2017-11-05T08:25:47.540Z,5.78
2017-11-05T08:28:16.875Z,7.04
2017-11-05T08:30:46.018Z,10.46
2017-11-05T08:33:14.268Z,8.90
2017-11-05T08:35:42.564Z,9.54
2017-11-05T08:38:10.815Z,7.60
2017-11-05T08:40:39.090Z,5.32
2017-11-05T08:43:06.609Z,7.56
2017-11-05T08:45:36.111Z,6.56
2017-11-05T08:48:04.371Z,5.64
2017-11-05T08:50:32.654Z,6.74
2017-11-05T08:53:00.908Z,6.14
2017-11-05T08:55:29.183Z,4.60
2017-11-05T08:57:57.435Z,8.78
2017-11-05T09:00:25.713Z,7.30
2017-11-05T09:02:54.016Z,7.62
2017-11-05T09:05:22.274Z,6.92
2017-11-05T09:07:50.524Z,9.40
2017-11-05T09:10:18.810Z,9.98
2017-11-05T09:12:46.287Z,5.52
2017-11-05T09:15:14.575Z,5.94
2017-11-05T09:17:42.840Z,7.44
2017-11-05T09:20:11.106Z,7.04
2017-11-05T09:22:39.392Z,11.16
2017-11-05T09:25:07.676Z,6.40
2017-11-05T09:27:36.740Z,6.72
2017-11-05T09:30:06.567Z,8.68
2017-11-05T09:32:35.349Z,14.34
2017-11-05T09:35:03.609Z,7.90
2017-11-05T09:37:31.896Z,8.10
2017-11-05T09:40:00.151Z,6.72
2017-11-05T09:42:28.436Z,9.52
2017-11-05T09:44:56.679Z,9.06
2017-11-05T09:47:24.970Z,8.62
2017-11-05T09:49:53.220Z,9.58
2017-11-05T09:52:21.485Z,11.00
2017-11-05T09:54:55.536Z,10.52
2017-11-05T09:57:23.795Z,8.38
2017-11-05T09:59:52.071Z,13.10
2017-11-05T10:02:20.331Z,10.42
2017-11-05T10:04:48.615Z,10.04
2017-11-05T10:07:17.949Z,9.12
2017-11-05T10:09:47.212Z,11.24
2017-11-05T10:12:15.870Z,10.66
2017-11-05T10:14:44.179Z,9.98
2017-11-05T10:17:12.439Z,13.32
2017-11-05T10:19:39.923Z,8.70
2017-11-05T10:22:08.226Z,11.88
2017-11-05T10:24:36.496Z,11.94
2017-11-05T10:27:05.596Z,12.06
2017-11-05T10:29:33.922Z,9.26
2017-11-05T10:32:02.209Z,13.22
2017-11-05T10:34:30.467Z,13.28
2017-11-05T10:36:58.759Z,8.18
2017-11-05T10:39:27.011Z,10.32
2017-11-05T10:41:55.273Z,13.20
2017-11-05T10:44:23.563Z,12.36
2017-11-05T10:46:51.825Z,9.20
2017-11-05T10:49:19.356Z,17.28
2017-11-05T10:51:47.611Z,9.74
2017-11-05T10:54:16.655Z,14.10
2017-11-05T10:56:44.939Z,11.94
2017-11-05T10:59:13.192Z,8.76
2017-11-05T11:01:41.475Z,16.22
2017-11-05T11:04:10.383Z,9.76
2017-11-05T11:06:39.509Z,11.70
2017-11-05T11:09:07.780Z,11.10
2017-11-05T11:11:36.865Z,13.68
2017-11-05T11:14:06.053Z,12.90
2017-11-05T11:16:34.336Z,12.46
2017-11-05T11:19:02.628Z,15.44
2017-11-05T11:21:30.884Z,18.38
2017-11-05T11:23:59.172Z,13.02
2017-11-05T11:26:27.468Z,11.42
2017-11-05T11:28:55.723Z,15.26
2017-11-05T11:31:24.036Z,12.78
2017-11-05T11:33:52.288Z,10.36
2017-11-05T11:36:20.579Z,12.96
2017-11-05T11:38:48.843Z,9.76
2017-11-05T11:41:17.667Z,15.58
2017-11-05T11:43:46.816Z,9.68
2017-11-05T11:46:15.096Z,12.00
2017-11-05T11:48:43.380Z,14.80
2017-11-05T11:51:11.649Z,21.16
2017-11-05T11:53:39.935Z,16.00
2017-11-05T11:56:08.245Z,8.70
2017-11-05T11:58:36.495Z,11.66
2017-11-05T12:01:08.648Z,11.90
2017-11-05T12:03:36.908Z,14.26
2017-11-05T12:06:05.631Z,8.64
2017-11-05T12:08:33.911Z,13.80
2017-11-05T12:11:02.172Z,8.48
2017-11-05T12:13:30.455Z,17.22
2017-11-05T12:15:58.763Z,12.70
2017-11-05T12:18:27.028Z,12.02
2017-11-05T12:20:55.294Z,16.26
2017-11-05T12:23:23.582Z,10.08
2017-11-05T12:25:51.844Z,15.50
2017-11-05T12:28:20.119Z,11.94
2017-11-05T12:30:48.417Z,14.30
2017-11-05T12:33:17.668Z,10.26
2017-11-05T12:35:47.398Z,12.46
2017-11-05T12:38:16.711Z,10.66
2017-11-05T12:40:44.999Z,9.66
2017-11-05T12:43:13.268Z,10.12
2017-11-05T12:45:41.555Z,11.56
2017-11-05T12:48:09.843Z,9.30
2017-11-05T12:50:38.115Z,11.98
2017-11-05T12:53:08.767Z,13.58
2017-11-05T12:55:37.050Z,16.20
2017-11-05T12:58:05.663Z,12.62
2017-11-05T13:00:33.944Z,10.18
2017-11-05T13:03:02.208Z,10.34
2017-11-05T13:05:30.503Z,14.20
2017-11-05T13:07:58.810Z,10.08
2017-11-05T13:10:27.113Z,16.10
2017-11-05T13:12:55.374Z,8.84
2017-11-05T13:15:23.662Z,8.28
2017-11-05T13:17:51.942Z,11.18
2017-11-05T13:20:20.250Z,8.26
2017-11-05T13:22:48.511Z,10.70
2017-11-05T13:25:18.063Z,10.20
2017-11-05T13:27:46.336Z,13.20
2017-11-05T13:30:14.602Z,10.30
2017-11-05T13:32:42.895Z,17.14
2017-11-05T13:35:11.143Z,10.26
2017-11-05T13:37:38.639Z,15.92
2017-11-05T13:40:06.920Z,13.18
2017-11-05T13:42:36.067Z,14.66
2017-11-05T13:45:03.644Z,7.40
2017-11-05T13:47:31.916Z,9.98
2017-11-05T13:50:00.209Z,6.60
2017-11-05T13:52:28.455Z,6.16
2017-11-05T13:54:56.739Z,5.72
2017-11-05T13:57:25.029Z,10.04
2017-11-05T13:59:53.345Z,5.22
2017-11-05T14:02:21.639Z,8.18
2017-11-05T14:04:49.886Z,9.02
2017-11-05T14:07:18.143Z,16.20
2017-11-05T14:09:46.449Z,12.64
2017-11-05T14:12:14.715Z,9.62
2017-11-05T14:14:42.977Z,11.80
2017-11-05T14:17:11.267Z,10.40
2017-11-05T14:19:39.525Z,10.66
2017-11-05T14:22:07.778Z,11.44
2017-11-05T14:24:39.475Z,7.14
2017-11-05T14:27:07.760Z,10.10
2017-11-05T14:29:39.667Z,7.68
2017-11-05T14:32:07.936Z,13.86
2017-11-05T14:34:42.403Z,7.26
2017-11-05T14:37:10.660Z,19.78
2017-11-05T14:39:38.910Z,6.78
2017-11-05T14:42:07.208Z,10.64
2017-11-05T14:44:36.899Z,14.32
2017-11-05T14:47:05.790Z,9.54
2017-11-05T14:49:34.826Z,8.54
2017-11-05T14:52:03.079Z,7.58
2017-11-05T14:54:31.384Z,8.48
2017-11-05T14:56:59.631Z,10.00
2017-11-05T14:59:27.947Z,12.08
2017-11-05T15:01:56.222Z,12.24
2017-11-05T15:04:24.466Z,9.90
2017-11-05T15:06:52.748Z,5.80
2017-11-05T15:09:21.041Z,14.64
2017-11-05T15:11:49.344Z,7.76
2017-11-05T15:14:17.627Z,11.90
2017-11-05T15:16:46.052Z,10.24
2017-11-05T15:19:14.309Z,9.40
2017-11-05T15:21:42.564Z,13.78
2017-11-05T15:24:11.804Z,11.38
2017-11-05T15:26:40.071Z,12.92
2017-11-05T15:29:08.361Z,7.12
2017-11-05T15:31:36.616Z,7.74
2017-11-05T15:34:05.959Z,6.96
2017-11-05T15:36:34.878Z,6.30
2017-11-05T15:39:03.184Z,6.74
2017-11-05T15:41:31.444Z,5.36
2017-11-05T15:43:59.719Z,9.14
2017-11-05T15:46:28.012Z,7.74
2017-11-05T15:48:56.272Z,9.56
2017-11-05T15:51:24.527Z,8.32
2017-11-05T15:53:52.802Z,16.86
2017-11-05T15:56:21.055Z,8.70
2017-11-05T15:58:49.319Z,9.62
2017-11-05T16:01:17.578Z,6.62
2017-11-05T16:03:47.033Z,6.78
2017-11-05T16:06:16.086Z,9.96
2017-11-05T16:08:44.362Z,8.92
2017-11-05T16:11:12.663Z,7.40
2017-11-05T16:13:40.950Z,6.52
2017-11-05T16:16:09.210Z,8.80
2017-11-05T16:18:37.523Z,9.04
2017-11-05T16:21:06.538Z,15.18
2017-11-05T16:23:35.786Z,16.52
2017-11-05T16:26:04.973Z,17.80
2017-11-05T16:28:33.242Z,15.42
2017-11-05T16:31:01.583Z,10.08
2017-11-05T16:33:29.839Z,12.70
2017-11-05T16:35:57.355Z,14.86
2017-11-05T16:38:25.676Z,15.20
2017-11-05T16:40:54.023Z,9.66
2017-11-05T16:43:22.332Z,9.12
2017-11-05T16:45:50.607Z,12.00
2017-11-05T16:48:18.864Z,12.84
2017-11-05T16:50:47.899Z,9.56
2017-11-05T16:53:16.192Z,11.76
2017-11-05T16:55:44.447Z,15.70
2017-11-05T16:58:12.787Z,8.82
2017-11-05T17:00:42.000Z,12.74
2017-11-05T17:03:10.251Z,11.32
2017-11-05T17:05:38.531Z,11.06
2017-11-05T17:08:06.788Z,11.96
2017-11-05T17:10:35.940Z,11.42
2017-11-05T17:13:04.874Z,10.98
2017-11-05T17:15:33.163Z,11.82
2017-11-05T17:18:02.673Z,12.36
2017-11-05T17:20:30.997Z,13.98
2017-11-05T17:22:59.280Z,9.60
2017-11-05T17:25:27.541Z,11.08
2017-11-05T17:27:59.311Z,8.26
2017-11-05T17:30:27.564Z,14.22
2017-11-05T17:32:55.097Z,19.24
2017-11-05T17:35:23.362Z,19.74
2017-11-05T17:37:51.660Z,21.72
2017-11-05T17:40:19.940Z,15.40
2017-11-05T17:42:48.563Z,15.70
2017-11-05T17:45:17.484Z,10.76
2017-11-05T17:47:49.782Z,8.46
2017-11-05T17:50:18.095Z,7.24
2017-11-05T17:52:46.926Z,8.36
2017-11-05T17:55:15.191Z,8.38
2017-11-05T17:57:43.472Z,7.36
2017-11-05T18:00:11.720Z,10.66
2017-11-05T18:02:40.054Z,7.38
2017-11-05T18:05:08.347Z,9.22
2017-11-05T18:07:36.596Z,5.60
2017-11-05T18:10:05.737Z,6.16
2017-11-05T18:12:33.983Z,6.56
2017-11-05T18:15:02.233Z,6.28
2017-11-05T18:17:30.562Z,4.58
2017-11-05T18:19:58.865Z,5.08
2017-11-05T18:22:27.156Z,6.64
2017-11-05T18:24:55.408Z,8.40
2017-11-05T18:27:23.688Z,6.02
2017-11-05T18:29:51.994Z,5.60
2017-11-05T18:32:20.326Z,6.32
2017-11-05T18:34:48.653Z,6.40
2017-11-05T18:37:16.738Z,7.46
2017-11-05T18:39:47.723Z,5.74
2017-11-05T18:42:16.504Z,5.92
2017-11-05T18:44:44.837Z,6.76
2017-11-05T18:47:13.092Z,5.40
2017-11-05T18:49:41.343Z,4.86
2017-11-05T18:52:09.628Z,8.16
2017-11-05T18:54:37.928Z,5.82
2017-11-05T18:57:06.916Z,8.20
2017-11-05T18:59:35.218Z,8.00
2017-11-05T19:02:03.472Z,8.12
2017-11-05T19:04:31.811Z,8.90
2017-11-05T19:07:00.115Z,10.66
2017-11-05T19:09:28.423Z,10.30
2017-11-05T19:11:56.750Z,13.40
2017-11-05T19:14:24.318Z,13.42
2017-11-05T19:16:52.655Z,10.64
2017-11-05T19:19:20.958Z,11.50
2017-11-05T19:21:49.320Z,8.28
2017-11-05T19:24:17.658Z,8.84
2017-11-05T19:26:47.042Z,9.50
2017-11-05T19:29:16.015Z,8.14
2017-11-05T19:31:44.288Z,8.32
2017-11-05T19:34:12.595Z,14.78
2017-11-05T19:36:40.892Z,8.16
2017-11-05T19:39:09.206Z,8.48
2017-11-05T19:41:37.510Z,9.46
2017-11-05T19:44:07.108Z,11.06
2017-11-05T19:46:35.415Z,9.56
2017-11-05T19:49:03.716Z,8.92
2017-11-05T19:51:32.058Z,17.72
2017-11-05T19:54:00.358Z,10.72
2017-11-05T19:56:28.699Z,13.92
2017-11-05T19:58:56.952Z,12.46
2017-11-05T20:01:25.448Z,12.04
2017-11-05T20:03:53.736Z,11.12
2017-11-05T20:06:22.015Z,8.34
2017-11-05T20:08:50.320Z,8.70
2017-11-05T20:11:18.593Z,9.44
2017-11-05T20:13:47.811Z,8.74
2017-11-05T20:16:16.842Z,13.02
2017-11-05T20:18:45.183Z,10.62
2017-11-05T20:21:13.482Z,10.08
2017-11-05T20:23:41.731Z,11.96
2017-11-05T20:26:09.290Z,10.54
2017-11-05T20:28:37.596Z,10.44
2017-11-05T20:31:06.696Z,11.98
2017-11-05T20:33:36.104Z,11.36
2017-11-05T20:36:04.436Z,16.36
2017-11-05T20:38:33.031Z,14.08
2017-11-05T20:41:01.411Z,10.04
2017-11-05T20:43:29.716Z,11.06
2017-11-05T20:45:58.047Z,11.92
2017-11-05T20:48:27.256Z,9.80
2017-11-05T20:50:55.513Z,9.64
2017-11-05T20:53:23.819Z,12.40
2017-11-05T20:55:51.360Z,11.52
2017-11-05T20:58:19.659Z,14.16
2017-11-05T21:00:47.962Z,14.42
2017-11-05T21:03:17.867Z,13.34
2017-11-05T21:05:47.240Z,10.72
2017-11-05T21:08:16.137Z,11.22
2017-11-05T21:10:44.443Z,12.10
2017-11-05T21:13:12.699Z,10.36
2017-11-05T21:15:41.034Z,9.94
2017-11-05T21:18:09.291Z,10.60
2017-11-05T21:20:37.572Z,13.68
2017-11-05T21:23:06.834Z,11.58
2017-11-05T21:25:36.221Z,17.34
2017-11-05T21:28:04.556Z,11.98
2017-11-05T21:30:32.838Z,9.60
2017-11-05T21:33:01.132Z,12.32
2017-11-05T21:35:29.455Z,11.96
2017-11-05T21:37:58.064Z,11.00
2017-11-05T21:40:26.410Z,9.92
2017-11-05T21:42:54.709Z,10.82
2017-11-05T21:45:22.236Z,14.72
2017-11-05T21:47:50.524Z,11.28
2017-11-05T21:50:18.776Z,12.22
2017-11-05T21:52:47.810Z,12.64
2017-11-05T21:55:16.092Z,12.68
2017-11-05T21:57:44.375Z,11.54
2017-11-05T22:00:12.684Z,12.46
2017-11-05T22:02:40.979Z,12.40
2017-11-05T22:05:09.236Z,11.68
2017-11-05T22:07:37.680Z,9.44
2017-11-05T22:10:06.588Z,10.52
2017-11-05T22:12:35.459Z,12.80
2017-11-05T22:15:03.771Z,11.38
2017-11-05T22:17:32.061Z,10.58
2017-11-05T22:20:00.321Z,11.30
2017-11-05T22:22:28.591Z,12.90
2017-11-05T22:24:56.903Z,13.74
2017-11-05T22:27:25.160Z,15.54
2017-11-05T22:29:53.452Z,16.90
2017-11-05T22:32:21.775Z,14.92
2017-11-05T22:34:50.032Z,11.96
2017-11-05T22:37:18.327Z,13.20
2017-11-05T22:39:46.620Z,14.82
2017-11-05T22:42:14.871Z,15.88
2017-11-05T22:44:43.157Z,13.52
2017-11-05T22:47:11.424Z,10.52
2017-11-05T22:49:39.711Z,10.34
2017-11-05T22:52:08.001Z,13.18
2017-11-05T22:54:41.991Z,13.00
2017-11-05T22:57:10.283Z,12.52
2017-11-05T22:59:38.545Z,13.54
2017-11-05T23:02:06.795Z,12.52
2017-11-05T23:04:34.323Z,12.82
2017-11-05T23:07:02.575Z,15.66
2017-11-05T23:09:30.864Z,16.58
2017-11-05T23:11:59.120Z,15.88
2017-11-05T23:14:27.411Z,15.30
2017-11-05T23:16:55.672Z,14.38
2017-11-05T23:19:23.159Z,16.34
2017-11-05T23:21:51.455Z,14.52
2017-11-05T23:24:19.715Z,14.18
2017-11-05T23:26:47.980Z,12.84
2017-11-05T23:29:17.065Z,16.18
2017-11-05T23:31:45.360Z,14.04
2017-11-05T23:34:14.375Z,17.22
2017-11-05T23:36:42.675Z,17.00
2017-11-05T23:39:10.931Z,15.64
2017-11-05T23:41:39.193Z,16.80
2017-11-05T23:44:06.710Z,18.82
2017-11-05T23:46:36.647Z,18.42
2017-11-05T23:49:05.802Z,18.42
2017-11-05T23:51:35.703Z,16.24
2017-11-05T23:54:05.701Z,15.74
2017-11-05T23:56:34.011Z,22.36
2017-11-05T23:59:02.316Z,15.94
